sensor_id;sensor_type;location;lat;lon;timestamp;pressure;altitude;pressure_sealevel;temperature;humidity
13836;BME280;6988;52.614;13.500;2022-07-24T00:00:16;53913.25;;;-143.77;60.34
13836;BME280;6988;52.614;13.500;2022-07-24T00:05:10;53933.78;;;-143.77;60.30
13836;BME280;6988;52.614;13.500;2022-07-24T00:10:03;53929.69;;;-143.77;60.29
13836;BME280;6988;52.614;13.500;2022-07-24T00:14:56;53925.56;;;-143.77;60.63
13836;BME280;6988;52.614;13.500;2022-07-24T00:19:48;53909.16;;;-143.77;60.75
13836;BME280;6988;52.614;13.500;2022-07-24T00:24:41;53921.47;;;-143.77;60.95
13836;BME280;6988;52.614;13.500;2022-07-24T00:29:32;53937.88;;;-143.77;61.01
13836;BME280;6988;52.614;13.500;2022-07-24T00:34:24;53933.78;;;-143.77;61.25
13836;BME280;6988;52.614;13.500;2022-07-24T00:39:16;53933.78;;;-143.77;61.15
13836;BME280;6988;52.614;13.500;2022-07-24T00:44:12;53950.19;;;-143.77;61.46
13836;BME280;6988;52.614;13.500;2022-07-24T00:49:08;53927.63;;;-143.77;61.58
13836;BME280;6988;52.614;13.500;2022-07-24T00:54:02;53950.19;;;-143.77;61.97
13836;BME280;6988;52.614;13.500;2022-07-24T00:58:54;53950.19;;;-143.77;62.06
13836;BME280;6988;52.614;13.500;2022-07-24T01:03:47;53962.50;;;-143.77;62.40
13836;BME280;6988;52.614;13.500;2022-07-24T01:08:40;53939.94;;;-143.77;62.45
13836;BME280;6988;52.614;13.500;2022-07-24T01:13:34;53997.38;;;-143.77;62.02
13836;BME280;6988;52.614;13.500;2022-07-24T01:18:26;53962.50;;;-143.77;62.52
13836;BME280;6988;52.614;13.500;2022-07-24T01:23:19;53983.00;;;-143.77;62.89
13836;BME280;6988;52.614;13.500;2022-07-24T01:28:10;54001.47;;;-143.77;63.51
13836;BME280;6988;52.614;13.500;2022-07-24T01:33:03;53993.28;;;-143.77;64.04
13836;BME280;6988;52.614;13.500;2022-07-24T01:37:55;54003.53;;;-143.77;64.44
13836;BME280;6988;52.614;13.500;2022-07-24T01:42:48;53970.72;;;-143.77;64.75
13836;BME280;6988;52.614;13.500;2022-07-24T01:47:41;54034.31;;;-143.77;65.25
13836;BME280;6988;52.614;13.500;2022-07-24T01:52:33;54036.38;;;-143.77;65.64
13836;BME280;6988;52.614;13.500;2022-07-24T01:57:25;54024.06;;;-143.77;65.94
13836;BME280;6988;52.614;13.500;2022-07-24T02:02:19;53987.13;;;-143.77;66.18
13836;BME280;6988;52.614;13.500;2022-07-24T02:07:10;54019.94;;;-143.77;66.68
13836;BME280;6988;52.614;13.500;2022-07-24T02:12:03;54028.16;;;-143.77;66.75
13836;BME280;6988;52.614;13.500;2022-07-24T02:16:55;53978.91;;;-143.77;66.92
13836;BME280;6988;52.614;13.500;2022-07-24T02:21:48;53999.44;;;-143.77;67.05
13836;BME280;6988;52.614;13.500;2022-07-24T02:26:39;54022.00;;;-143.77;66.86
13836;BME280;6988;52.614;13.500;2022-07-24T02:31:31;54019.94;;;-143.77;66.62
13836;BME280;6988;52.614;13.500;2022-07-24T02:36:23;54022.00;;;-143.77;66.09
13836;BME280;6988;52.614;13.500;2022-07-24T02:41:16;54019.94;;;-143.77;66.27
13836;BME280;6988;52.614;13.500;2022-07-24T02:46:08;54085.59;;;-143.77;67.02
13836;BME280;6988;52.614;13.500;2022-07-24T02:51:00;54065.09;;;-143.77;67.56
13836;BME280;6988;52.614;13.500;2022-07-24T02:55:52;54067.13;;;-143.77;67.59
13836;BME280;6988;52.614;13.500;2022-07-24T03:00:45;54071.25;;;-143.77;67.61
13836;BME280;6988;52.614;13.500;2022-07-24T03:05:37;54073.28;;;-143.77;68.45
13836;BME280;6988;52.614;13.500;2022-07-24T03:10:28;54042.50;;;-143.77;69.42
13836;BME280;6988;52.614;13.500;2022-07-24T03:15:20;54097.91;;;-143.77;69.26
13836;BME280;6988;52.614;13.500;2022-07-24T03:20:13;54060.97;;;-143.77;68.76
13836;BME280;6988;52.614;13.500;2022-07-24T03:25:06;54067.13;;;-143.77;69.01
13836;BME280;6988;52.614;13.500;2022-07-24T03:29:57;54044.56;;;-143.77;67.15
13836;BME280;6988;52.614;13.500;2022-07-24T03:34:49;54089.72;;;-143.77;67.06
13836;BME280;6988;52.614;13.500;2022-07-24T03:39:42;54069.19;;;-143.77;67.12
13836;BME280;6988;52.614;13.500;2022-07-24T03:44:36;54093.81;;;-143.77;67.41
13836;BME280;6988;52.614;13.500;2022-07-24T03:49:28;54079.44;;;-143.77;67.93
13836;BME280;6988;52.614;13.500;2022-07-24T03:54:20;54067.13;;;-143.77;68.64
13836;BME280;6988;52.614;13.500;2022-07-24T03:59:17;54075.34;;;-143.77;69.92
13836;BME280;6988;52.614;13.500;2022-07-24T04:04:09;54081.50;;;-143.77;70.81
13836;BME280;6988;52.614;13.500;2022-07-24T04:09:04;54048.66;;;-143.77;70.56
13836;BME280;6988;52.614;13.500;2022-07-24T04:13:56;54065.09;;;-143.77;70.35
13836;BME280;6988;52.614;13.500;2022-07-24T04:18:49;54044.56;;;-143.77;70.27
13836;BME280;6988;52.614;13.500;2022-07-24T04:23:40;54079.44;;;-143.77;70.13
13836;BME280;6988;52.614;13.500;2022-07-24T04:28:32;54069.19;;;-143.77;70.13
13836;BME280;6988;52.614;13.500;2022-07-24T04:33:24;54032.25;;;-143.77;70.35
13836;BME280;6988;52.614;13.500;2022-07-24T04:38:17;54032.25;;;-143.77;70.01
13836;BME280;6988;52.614;13.500;2022-07-24T04:43:09;54005.59;;;-143.77;70.27
13836;BME280;6988;52.614;13.500;2022-07-24T04:48:01;54011.75;;;-143.77;69.68
13836;BME280;6988;52.614;13.500;2022-07-24T04:52:53;54011.75;;;-143.77;69.64
13836;BME280;6988;52.614;13.500;2022-07-24T04:57:46;53968.66;;;-143.77;69.11
13836;BME280;6988;52.614;13.500;2022-07-24T05:02:38;53978.91;;;-143.77;66.69
13836;BME280;6988;52.614;13.500;2022-07-24T05:07:30;53993.28;;;-143.77;67.32
13836;BME280;6988;52.614;13.500;2022-07-24T05:12:21;53966.59;;;-143.77;67.38
13836;BME280;6988;52.614;13.500;2022-07-24T05:17:14;54015.84;;;-143.77;66.85
13836;BME280;6988;52.614;13.500;2022-07-24T05:22:06;53931.72;;;-143.77;65.74
13836;BME280;6988;52.614;13.500;2022-07-24T05:26:58;53966.59;;;-143.77;65.95
13836;BME280;6988;52.614;13.500;2022-07-24T05:31:50;53976.88;;;-143.77;66.50
13836;BME280;6988;52.614;13.500;2022-07-24T05:36:43;53941.97;;;-143.77;66.97
13836;BME280;6988;52.614;13.500;2022-07-24T05:41:35;53937.88;;;-143.77;65.82
13836;BME280;6988;52.614;13.500;2022-07-24T05:46:27;53931.72;;;-143.77;65.78
13836;BME280;6988;52.614;13.500;2022-07-24T05:51:18;53948.13;;;-143.77;65.85
13836;BME280;6988;52.614;13.500;2022-07-24T05:56:11;53937.88;;;-143.77;65.43
13836;BME280;6988;52.614;13.500;2022-07-24T06:01:03;53935.84;;;-143.77;65.11
13836;BME280;6988;52.614;13.500;2022-07-24T06:05:55;53923.53;;;-143.77;64.60
13836;BME280;6988;52.614;13.500;2022-07-24T06:10:47;53907.09;;;-143.77;63.83
13836;BME280;6988;52.614;13.500;2022-07-24T06:15:40;53900.94;;;-143.77;62.06
13836;BME280;6988;52.614;13.500;2022-07-24T06:20:32;53878.38;;;-143.77;61.03
13836;BME280;6988;52.614;13.500;2022-07-24T06:25:24;53847.59;;;-143.77;60.21
13836;BME280;6988;52.614;13.500;2022-07-24T06:30:18;53833.25;;;-143.77;59.72
13836;BME280;6988;52.614;13.500;2022-07-24T06:35:11;53730.66;;;-143.77;57.88
13836;BME280;6988;52.614;13.500;2022-07-24T06:40:05;53716.31;;;-143.77;57.85
13836;BME280;6988;52.614;13.500;2022-07-24T06:44:57;53650.66;;;-143.77;56.13
13836;BME280;6988;52.614;13.500;2022-07-24T06:49:48;53597.31;;;-143.77;55.22
13836;BME280;6988;52.614;13.500;2022-07-24T06:54:42;53603.47;;;-143.77;53.09
13836;BME280;6988;52.614;13.500;2022-07-24T06:59:34;53589.13;;;-143.77;53.23
13836;BME280;6988;52.614;13.500;2022-07-24T07:04:26;53564.50;;;-143.77;52.28
13836;BME280;6988;52.614;13.500;2022-07-24T07:09:17;53515.25;;;-143.77;51.11
13836;BME280;6988;52.614;13.500;2022-07-24T07:14:11;53496.81;;;-143.77;51.18
13836;BME280;6988;52.614;13.500;2022-07-24T07:19:02;53507.06;;;-143.77;48.99
13836;BME280;6988;52.614;13.500;2022-07-24T07:23:54;53478.34;;;-143.77;48.10
13836;BME280;6988;52.614;13.500;2022-07-24T07:28:46;53484.50;;;-143.77;47.82
13836;BME280;6988;52.614;13.500;2022-07-24T07:33:39;53439.38;;;-143.77;48.13
13836;BME280;6988;52.614;13.500;2022-07-24T07:38:31;53439.38;;;-143.77;46.62
13836;BME280;6988;52.614;13.500;2022-07-24T07:43:22;53414.75;;;-143.77;46.73
13836;BME280;6988;52.614;13.500;2022-07-24T07:48:15;53402.44;;;-143.77;44.84
13836;BME280;6988;52.614;13.500;2022-07-24T07:53:08;53369.63;;;-143.77;44.50
13836;BME280;6988;52.614;13.500;2022-07-24T07:58:00;53361.41;;;-143.77;44.18
13836;BME280;6988;52.614;13.500;2022-07-24T08:02:52;53322.44;;;-143.77;43.23
13836;BME280;6988;52.614;13.500;2022-07-24T08:07:44;53310.13;;;-143.77;42.82
13836;BME280;6988;52.614;13.500;2022-07-24T08:12:38;53295.78;;;-143.77;42.50
13836;BME280;6988;52.614;13.500;2022-07-24T08:17:30;53291.66;;;-143.77;42.27
13836;BME280;6988;52.614;13.500;2022-07-24T08:22:21;53254.75;;;-143.77;40.89
13836;BME280;6988;52.614;13.500;2022-07-24T08:27:13;53223.97;;;-143.77;40.40
13836;BME280;6988;52.614;13.500;2022-07-24T08:32:06;53256.78;;;-143.77;40.08
13836;BME280;6988;52.614;13.500;2022-07-24T08:36:58;53219.88;;;-143.77;40.27
13836;BME280;6988;52.614;13.500;2022-07-24T08:41:50;53248.59;;;-143.77;40.12
13836;BME280;6988;52.614;13.500;2022-07-24T08:46:42;53258.84;;;-143.77;39.88
13836;BME280;6988;52.614;13.500;2022-07-24T08:51:38;53232.19;;;-143.77;40.11
13836;BME280;6988;52.614;13.500;2022-07-24T08:56:31;53189.09;;;-143.77;39.04
13836;BME280;6988;52.614;13.500;2022-07-24T09:01:23;53154.22;;;-143.77;39.70
13836;BME280;6988;52.614;13.500;2022-07-24T09:06:16;53141.91;;;-143.77;37.10
13836;BME280;6988;52.614;13.500;2022-07-24T09:11:10;53125.50;;;-143.77;37.87
13836;BME280;6988;52.614;13.500;2022-07-24T09:16:01;53125.50;;;-143.77;37.80
13836;BME280;6988;52.614;13.500;2022-07-24T09:20:54;53109.09;;;-143.77;35.52
13836;BME280;6988;52.614;13.500;2022-07-24T09:25:50;53096.78;;;-143.77;36.77
13836;BME280;6988;52.614;13.500;2022-07-24T09:30:44;53074.22;;;-143.77;36.14
13836;BME280;6988;52.614;13.500;2022-07-24T09:35:38;53008.59;;;-143.77;36.31
13836;BME280;6988;52.614;13.500;2022-07-24T09:40:33;52988.09;;;-143.77;35.70
13836;BME280;6988;52.614;13.500;2022-07-24T09:45:25;52953.22;;;-143.77;33.77
13836;BME280;6988;52.614;13.500;2022-07-24T09:50:20;52967.56;;;-143.77;33.84
13836;BME280;6988;52.614;13.500;2022-07-24T09:55:23;52940.91;;;-143.77;34.21
13836;BME280;6988;52.614;13.500;2022-07-24T10:00:16;52953.22;;;-143.77;33.22
13836;BME280;6988;52.614;13.500;2022-07-24T10:05:12;52895.78;;;-143.77;34.29
13836;BME280;6988;52.614;13.500;2022-07-24T10:10:06;52879.38;;;-143.77;32.92
13836;BME280;6988;52.614;13.500;2022-07-24T10:15:01;52879.38;;;-143.77;33.57
13836;BME280;6988;52.614;13.500;2022-07-24T10:19:53;52883.47;;;-143.77;33.38
13836;BME280;6988;52.614;13.500;2022-07-24T10:24:56;52865.00;;;-143.77;33.82
13836;BME280;6988;52.614;13.500;2022-07-24T10:29:53;52824.00;;;-143.77;33.56
13836;BME280;6988;52.614;13.500;2022-07-24T10:34:53;52844.50;;;-143.77;31.87
13836;BME280;6988;52.614;13.500;2022-07-24T10:40:02;52846.56;;;-143.77;32.46
13836;BME280;6988;52.614;13.500;2022-07-24T10:45:18;52768.63;;;-143.77;32.80
13836;BME280;6988;52.614;13.500;2022-07-24T10:50:11;52785.03;;;-143.77;31.81
13836;BME280;6988;52.614;13.500;2022-07-24T10:55:29;52768.63;;;-143.77;32.60
13836;BME280;6988;52.614;13.500;2022-07-24T11:00:29;52731.69;;;-143.77;32.37
13836;BME280;6988;52.614;13.500;2022-07-24T11:05:30;52711.19;;;-143.77;31.29
13836;BME280;6988;52.614;13.500;2022-07-24T11:10:44;52707.09;;;-143.77;31.66
13836;BME280;6988;52.614;13.500;2022-07-24T11:21:00;52723.50;;;-143.77;30.63
13836;BME280;6988;52.614;13.500;2022-07-24T11:26:38;52741.94;;;-143.77;31.84
13836;BME280;6988;52.614;13.500;2022-07-24T11:31:32;52715.28;;;-143.77;31.64
13836;BME280;6988;52.614;13.500;2022-07-24T11:36:24;52692.72;;;-143.77;31.11
13836;BME280;6988;52.614;13.500;2022-07-24T11:41:16;52676.31;;;-143.77;31.55
13836;BME280;6988;52.614;13.500;2022-07-24T11:46:09;52715.28;;;-143.77;30.68
13836;BME280;6988;52.614;13.500;2022-07-24T11:51:05;52717.34;;;-143.77;31.52
13836;BME280;6988;52.614;13.500;2022-07-24T11:56:03;52752.22;;;-143.77;31.92
13836;BME280;6988;52.614;13.500;2022-07-24T12:00:55;52725.53;;;-143.77;31.16
13836;BME280;6988;52.614;13.500;2022-07-24T12:05:48;52719.38;;;-143.77;31.33
13836;BME280;6988;52.614;13.500;2022-07-24T12:10:40;52768.63;;;-143.77;31.22
13836;BME280;6988;52.614;13.500;2022-07-24T12:15:37;52782.97;;;-143.77;31.58
13836;BME280;6988;52.614;13.500;2022-07-24T12:20:31;52772.72;;;-143.77;31.71
13836;BME280;6988;52.614;13.500;2022-07-24T12:25:25;52735.81;;;-143.77;32.34
13836;BME280;6988;52.614;13.500;2022-07-24T12:30:22;52707.09;;;-143.77;30.38
13836;BME280;6988;52.614;13.500;2022-07-24T12:35:15;52702.97;;;-143.77;31.53
13836;BME280;6988;52.614;13.500;2022-07-24T12:40:08;52686.56;;;-143.77;30.49
13836;BME280;6988;52.614;13.500;2022-07-24T12:45:14;52715.28;;;-143.77;30.76
13836;BME280;6988;52.614;13.500;2022-07-24T12:50:13;52787.06;;;-143.77;31.37
13836;BME280;6988;52.614;13.500;2022-07-24T12:55:19;52811.69;;;-143.77;31.57
13836;BME280;6988;52.614;13.500;2022-07-24T13:00:14;52789.13;;;-143.77;31.75
13836;BME280;6988;52.614;13.500;2022-07-24T13:05:07;52785.03;;;-143.77;32.13
13836;BME280;6988;52.614;13.500;2022-07-24T13:09:59;52793.22;;;-143.77;31.08
13836;BME280;6988;52.614;13.500;2022-07-24T13:14:51;52733.75;;;-143.77;31.06
13836;BME280;6988;52.614;13.500;2022-07-24T13:19:47;52727.59;;;-143.77;30.67
13836;BME280;6988;52.614;13.500;2022-07-24T13:24:40;52727.59;;;-143.77;30.36
13836;BME280;6988;52.614;13.500;2022-07-24T13:29:36;52795.28;;;-143.77;30.49
13836;BME280;6988;52.614;13.500;2022-07-24T13:34:27;52791.19;;;-143.77;31.06
13836;BME280;6988;52.614;13.500;2022-07-24T13:39:22;52862.97;;;-143.77;31.27
13836;BME280;6988;52.614;13.500;2022-07-24T13:44:14;52854.75;;;-143.77;31.26
13836;BME280;6988;52.614;13.500;2022-07-24T13:49:07;52795.28;;;-143.77;30.92
13836;BME280;6988;52.614;13.500;2022-07-24T13:53:59;52873.22;;;-143.77;31.36
13836;BME280;6988;52.614;13.500;2022-07-24T13:58:53;52846.56;;;-143.77;31.94
13836;BME280;6988;52.614;13.500;2022-07-24T14:03:45;52875.28;;;-143.77;31.02
13836;BME280;6988;52.614;13.500;2022-07-24T14:08:38;52819.91;;;-143.77;30.69
13836;BME280;6988;52.614;13.500;2022-07-24T14:13:32;52848.59;;;-143.77;31.13
13836;BME280;6988;52.614;13.500;2022-07-24T14:18:25;52842.44;;;-143.77;30.66
13836;BME280;6988;52.614;13.500;2022-07-24T14:23:17;52875.28;;;-143.77;31.46
13836;BME280;6988;52.614;13.500;2022-07-24T14:28:10;52940.91;;;-143.77;31.43
13836;BME280;6988;52.614;13.500;2022-07-24T14:33:02;52901.94;;;-143.77;31.71
13836;BME280;6988;52.614;13.500;2022-07-24T14:37:55;52916.28;;;-143.77;32.03
13836;BME280;6988;52.614;13.500;2022-07-24T14:42:47;52912.19;;;-143.77;31.84
13836;BME280;6988;52.614;13.500;2022-07-24T14:47:39;52895.78;;;-143.77;30.92
13836;BME280;6988;52.614;13.500;2022-07-24T14:52:31;52873.22;;;-143.77;31.14
13836;BME280;6988;52.614;13.500;2022-07-24T14:57:24;52860.91;;;-143.77;30.95
13836;BME280;6988;52.614;13.500;2022-07-24T15:02:16;52887.56;;;-143.77;30.63
13836;BME280;6988;52.614;13.500;2022-07-24T15:07:08;52871.16;;;-143.77;30.55
13836;BME280;6988;52.614;13.500;2022-07-24T15:12:01;52893.72;;;-143.77;30.55
13836;BME280;6988;52.614;13.500;2022-07-24T15:16:54;52899.88;;;-143.77;30.23
13836;BME280;6988;52.614;13.500;2022-07-24T15:21:46;52912.19;;;-143.77;31.06
13836;BME280;6988;52.614;13.500;2022-07-24T15:26:38;52904.00;;;-143.77;31.56
13836;BME280;6988;52.614;13.500;2022-07-24T15:31:30;52965.53;;;-143.77;31.73
13836;BME280;6988;52.614;13.500;2022-07-24T15:36:25;52916.28;;;-143.77;32.10
13836;BME280;6988;52.614;13.500;2022-07-24T15:41:17;52899.88;;;-143.77;31.41
13836;BME280;6988;52.614;13.500;2022-07-24T15:46:09;52889.63;;;-143.77;31.27
13836;BME280;6988;52.614;13.500;2022-07-24T15:51:01;52928.59;;;-143.77;31.25
13836;BME280;6988;52.614;13.500;2022-07-24T15:55:54;52885.53;;;-143.77;31.73
13836;BME280;6988;52.614;13.500;2022-07-24T16:00:46;52883.47;;;-143.77;31.63
13836;BME280;6988;52.614;13.500;2022-07-24T16:05:39;52885.53;;;-143.77;30.77
13836;BME280;6988;52.614;13.500;2022-07-24T16:10:32;52877.31;;;-143.77;31.53
13836;BME280;6988;52.614;13.500;2022-07-24T16:15:25;52877.31;;;-143.77;31.24
13836;BME280;6988;52.614;13.500;2022-07-24T16:20:19;52895.78;;;-143.77;31.64
13836;BME280;6988;52.614;13.500;2022-07-24T16:25:13;52928.59;;;-143.77;31.23
13836;BME280;6988;52.614;13.500;2022-07-24T16:30:08;52973.72;;;-143.77;32.10
13836;BME280;6988;52.614;13.500;2022-07-24T16:35:02;52994.25;;;-143.77;32.10
13836;BME280;6988;52.614;13.500;2022-07-24T16:39:54;53027.06;;;-143.77;32.15
13836;BME280;6988;52.614;13.500;2022-07-24T16:44:47;53043.47;;;-143.77;32.67
13836;BME280;6988;52.614;13.500;2022-07-24T16:49:38;53107.06;;;-143.77;32.94
13836;BME280;6988;52.614;13.500;2022-07-24T16:54:32;53066.03;;;-143.77;33.32
13836;BME280;6988;52.614;13.500;2022-07-24T16:59:24;53100.91;;;-143.77;33.04
13836;BME280;6988;52.614;13.500;2022-07-24T17:04:16;53072.19;;;-143.77;33.48
13836;BME280;6988;52.614;13.500;2022-07-24T17:09:09;53082.44;;;-143.77;34.21
13836;BME280;6988;52.614;13.500;2022-07-24T17:14:02;53094.75;;;-143.77;33.93
13836;BME280;6988;52.614;13.500;2022-07-24T17:18:54;53109.09;;;-143.77;33.53
13836;BME280;6988;52.614;13.500;2022-07-24T17:23:46;53096.78;;;-143.77;33.89
13836;BME280;6988;52.614;13.500;2022-07-24T17:28:38;53133.72;;;-143.77;34.15
13836;BME280;6988;52.614;13.500;2022-07-24T17:33:33;53109.09;;;-143.77;34.41
13836;BME280;6988;52.614;13.500;2022-07-24T17:38:24;53129.63;;;-143.77;34.69
13836;BME280;6988;52.614;13.500;2022-07-24T17:43:16;53150.13;;;-143.77;34.80
13836;BME280;6988;52.614;13.500;2022-07-24T17:48:08;53143.97;;;-143.77;34.55
13836;BME280;6988;52.614;13.500;2022-07-24T17:53:02;53131.66;;;-143.77;35.36
13836;BME280;6988;52.614;13.500;2022-07-24T17:57:55;53191.16;;;-143.77;35.40
13836;BME280;6988;52.614;13.500;2022-07-24T18:02:48;53166.53;;;-143.77;35.85
13836;BME280;6988;52.614;13.500;2022-07-24T18:07:40;53174.75;;;-143.77;35.58
13836;BME280;6988;52.614;13.500;2022-07-24T18:12:34;53191.16;;;-143.77;36.55
13836;BME280;6988;52.614;13.500;2022-07-24T18:17:26;53180.91;;;-143.77;36.48
13836;BME280;6988;52.614;13.500;2022-07-24T18:22:18;53168.59;;;-143.77;37.07
13836;BME280;6988;52.614;13.500;2022-07-24T18:27:11;53178.84;;;-143.77;37.25
13836;BME280;6988;52.614;13.500;2022-07-24T18:32:05;53234.22;;;-143.77;37.50
13836;BME280;6988;52.614;13.500;2022-07-24T18:36:57;53203.47;;;-143.77;37.02
13836;BME280;6988;52.614;13.500;2022-07-24T18:41:49;53242.44;;;-143.77;37.71
13836;BME280;6988;52.614;13.500;2022-07-24T18:46:41;53234.22;;;-143.77;38.83
13836;BME280;6988;52.614;13.500;2022-07-24T18:51:34;53252.69;;;-143.77;39.95
13836;BME280;6988;52.614;13.500;2022-07-24T18:56:26;53269.09;;;-143.77;40.18
13836;BME280;6988;52.614;13.500;2022-07-24T19:01:18;53267.06;;;-143.77;41.04
13836;BME280;6988;52.614;13.500;2022-07-24T19:06:13;53295.78;;;-143.77;42.05
13836;BME280;6988;52.614;13.500;2022-07-24T19:11:07;53287.56;;;-143.77;42.72
13836;BME280;6988;52.614;13.500;2022-07-24T19:15:58;53334.75;;;-143.77;42.54
13836;BME280;6988;52.614;13.500;2022-07-24T19:20:51;53310.13;;;-143.77;42.41
13836;BME280;6988;52.614;13.500;2022-07-24T19:25:42;53334.75;;;-143.77;42.28
13836;BME280;6988;52.614;13.500;2022-07-24T19:30:35;53408.59;;;-143.77;42.91
13836;BME280;6988;52.614;13.500;2022-07-24T19:35:27;53359.34;;;-143.77;42.96
13836;BME280;6988;52.614;13.500;2022-07-24T19:40:20;53371.66;;;-143.77;42.61
13836;BME280;6988;52.614;13.500;2022-07-24T19:45:12;53363.47;;;-143.77;43.73
13836;BME280;6988;52.614;13.500;2022-07-24T19:50:07;53394.22;;;-143.77;43.47
13836;BME280;6988;52.614;13.500;2022-07-24T19:54:59;53390.13;;;-143.77;44.07
13836;BME280;6988;52.614;13.500;2022-07-24T19:59:51;53381.94;;;-143.77;44.73
13836;BME280;6988;52.614;13.500;2022-07-24T20:04:43;53412.69;;;-143.77;45.24
13836;BME280;6988;52.614;13.500;2022-07-24T20:09:38;53416.78;;;-143.77;45.18
13836;BME280;6988;52.614;13.500;2022-07-24T20:14:30;53406.53;;;-143.77;44.38
13836;BME280;6988;52.614;13.500;2022-07-24T20:19:22;53402.44;;;-143.77;44.96
13836;BME280;6988;52.614;13.500;2022-07-24T20:24:14;53420.91;;;-143.77;45.00
13836;BME280;6988;52.614;13.500;2022-07-24T20:29:07;53449.63;;;-143.77;44.00
13836;BME280;6988;52.614;13.500;2022-07-24T20:33:59;53437.31;;;-143.77;44.69
13836;BME280;6988;52.614;13.500;2022-07-24T20:38:54;53470.13;;;-143.77;45.54
13836;BME280;6988;52.614;13.500;2022-07-24T20:43:45;53457.81;;;-143.77;46.28
13836;BME280;6988;52.614;13.500;2022-07-24T20:48:38;53484.50;;;-143.77;46.79
13836;BME280;6988;52.614;13.500;2022-07-24T20:53:30;53478.34;;;-143.77;47.83
13836;BME280;6988;52.614;13.500;2022-07-24T20:58:22;53490.66;;;-143.77;47.26
13836;BME280;6988;52.614;13.500;2022-07-24T21:03:13;53525.53;;;-143.77;47.62
13836;BME280;6988;52.614;13.500;2022-07-24T21:08:07;53474.25;;;-143.77;46.45
13836;BME280;6988;52.614;13.500;2022-07-24T21:12:58;53513.22;;;-143.77;47.39
13836;BME280;6988;52.614;13.500;2022-07-24T21:17:50;53511.16;;;-143.77;47.58
13836;BME280;6988;52.614;13.500;2022-07-24T21:22:42;53535.78;;;-143.77;48.46
13836;BME280;6988;52.614;13.500;2022-07-24T21:27:35;53529.63;;;-143.77;49.26
13836;BME280;6988;52.614;13.500;2022-07-24T21:32:27;53552.19;;;-143.77;49.92
13836;BME280;6988;52.614;13.500;2022-07-24T21:37:18;53548.09;;;-143.77;50.23
13836;BME280;6988;52.614;13.500;2022-07-24T21:42:10;53537.84;;;-143.77;50.06
13836;BME280;6988;52.614;13.500;2022-07-24T21:47:03;53556.28;;;-143.77;49.44
13836;BME280;6988;52.614;13.500;2022-07-24T21:51:55;53558.34;;;-143.77;49.21
13836;BME280;6988;52.614;13.500;2022-07-24T21:56:47;53580.91;;;-143.77;50.77
13836;BME280;6988;52.614;13.500;2022-07-24T22:01:39;53543.97;;;-143.77;51.38
13836;BME280;6988;52.614;13.500;2022-07-24T22:06:32;53593.22;;;-143.77;50.73
13836;BME280;6988;52.614;13.500;2022-07-24T22:11:23;53580.91;;;-143.77;50.10
13836;BME280;6988;52.614;13.500;2022-07-24T22:16:15;53613.72;;;-143.77;50.58
13836;BME280;6988;52.614;13.500;2022-07-24T22:21:07;53589.13;;;-143.77;51.02
13836;BME280;6988;52.614;13.500;2022-07-24T22:26:00;53580.91;;;-143.77;50.40
13836;BME280;6988;52.614;13.500;2022-07-24T22:30:52;53585.00;;;-143.77;50.24
13836;BME280;6988;52.614;13.500;2022-07-24T22:35:44;53613.72;;;-143.77;50.25
13836;BME280;6988;52.614;13.500;2022-07-24T22:40:36;53574.75;;;-143.77;50.10
13836;BME280;6988;52.614;13.500;2022-07-24T22:45:30;53617.84;;;-143.77;50.30
13836;BME280;6988;52.614;13.500;2022-07-24T22:50:24;53605.53;;;-143.77;50.53
13836;BME280;6988;52.614;13.500;2022-07-24T22:55:17;53591.16;;;-143.77;50.74
13836;BME280;6988;52.614;13.500;2022-07-24T23:00:11;53593.22;;;-143.77;51.64
13836;BME280;6988;52.614;13.500;2022-07-24T23:05:06;53642.47;;;-143.77;51.70
13836;BME280;6988;52.614;13.500;2022-07-24T23:09:58;53630.16;;;-143.77;51.74
13836;BME280;6988;52.614;13.500;2022-07-24T23:14:50;53634.25;;;-143.77;51.71
13836;BME280;6988;52.614;13.500;2022-07-24T23:19:42;53626.03;;;-143.77;51.70
13836;BME280;6988;52.614;13.500;2022-07-24T23:24:35;53658.88;;;-143.77;51.59
13836;BME280;6988;52.614;13.500;2022-07-24T23:29:27;53642.47;;;-143.77;51.83
13836;BME280;6988;52.614;13.500;2022-07-24T23:34:19;53662.97;;;-143.77;52.26
13836;BME280;6988;52.614;13.500;2022-07-24T23:39:10;53671.19;;;-143.77;53.24
13836;BME280;6988;52.614;13.500;2022-07-24T23:44:04;53646.56;;;-143.77;53.52
13836;BME280;6988;52.614;13.500;2022-07-24T23:48:56;53644.50;;;-143.77;53.48
13836;BME280;6988;52.614;13.500;2022-07-24T23:53:47;53673.22;;;-143.77;54.13
13836;BME280;6988;52.614;13.500;2022-07-24T23:58:39;53646.56;;;-143.77;53.60
